createdAt,value
2022-11-05T00:00:05.411Z,99.30
2022-11-05T00:02:50.824Z,99.30
2022-11-05T00:05:36.343Z,99.20
2022-11-05T00:08:23.884Z,99.20
2022-11-05T00:10:50.834Z,99.10
2022-11-05T00:13:36.608Z,99.20
2022-11-05T00:16:21.916Z,99.20
2022-11-05T00:19:06.493Z,99.20
2022-11-05T00:21:52.970Z,99.20
2022-11-05T00:24:38.596Z,99.20
2022-11-05T00:27:05.482Z,99.10
2022-11-05T00:29:32.251Z,99.20
2022-11-05T00:31:59.035Z,99.30
2022-11-05T00:34:26.131Z,99.30
2022-11-05T00:36:52.923Z,99.20
2022-11-05T00:39:19.730Z,99.20
2022-11-05T00:42:06.498Z,99.20
2022-11-05T00:44:52.309Z,99.20
2022-11-05T00:47:37.647Z,99.20
2022-11-05T00:50:04.782Z,99.20
2022-11-05T00:52:50.005Z,99.20
2022-11-05T00:55:16.889Z,99.20
2022-11-05T00:57:43.655Z,99.10
2022-11-05T01:00:11.894Z,99.20
2022-11-05T01:02:38.817Z,99.20
2022-11-05T01:05:06.074Z,99.10
2022-11-05T01:07:32.824Z,99.20
2022-11-05T01:09:59.604Z,99.20
2022-11-05T01:12:26.457Z,99.10
2022-11-05T01:14:53.285Z,99.20
2022-11-05T01:17:20.046Z,99.00
2022-11-05T01:19:46.829Z,99.10
2022-11-05T01:22:13.670Z,99.10
2022-11-05T01:24:40.460Z,99.10
2022-11-05T01:27:07.214Z,99.10
2022-11-05T01:29:33.976Z,99.20
2022-11-05T01:32:00.952Z,99.20
2022-11-05T01:34:27.785Z,99.20
2022-11-05T01:36:54.500Z,99.20
2022-11-05T01:39:21.286Z,99.20
2022-11-05T01:41:48.013Z,99.20
2022-11-05T01:45:06.226Z,99.20
2022-11-05T01:47:32.961Z,99.30
2022-11-05T01:50:02.880Z,99.50
2022-11-05T01:52:45.781Z,99.40
2022-11-05T01:55:16.231Z,99.40
2022-11-05T01:57:43.061Z,99.40
2022-11-05T02:00:10.644Z,99.40
2022-11-05T02:02:37.694Z,99.50
2022-11-05T02:05:06.746Z,99.60
2022-11-05T02:07:34.522Z,99.70
2022-11-05T02:10:08.732Z,99.60
2022-11-05T02:12:39.238Z,99.70
2022-11-05T02:15:07.102Z,99.70
2022-11-05T02:18:03.822Z,99.90
2022-11-05T02:20:36.608Z,99.90
2022-11-05T02:23:18.541Z,99.90
2022-11-05T02:26:18.725Z,99.90
2022-11-05T02:29:00.885Z,99.90
2022-11-05T02:31:52.418Z,99.90
2022-11-05T02:34:25.189Z,99.90
2022-11-05T02:37:38.420Z,99.90
2022-11-05T02:40:11.041Z,99.90
2022-11-05T02:42:58.655Z,99.90
2022-11-05T02:45:40.218Z,99.90
2022-11-05T02:48:44.991Z,99.90
2022-11-05T02:51:36.331Z,99.90
2022-11-05T02:54:25.127Z,99.90
2022-11-05T02:56:54.418Z,99.90
2022-11-05T02:59:21.293Z,99.90
2022-11-05T03:01:49.934Z,99.90
2022-11-05T03:04:20.115Z,99.90
2022-11-05T03:06:51.416Z,99.90
2022-11-05T03:09:24.191Z,99.90
2022-11-05T03:12:06.201Z,99.90
2022-11-05T03:14:51.734Z,99.90
2022-11-05T03:17:37.913Z,99.90
2022-11-05T03:20:22.890Z,99.90
2022-11-05T03:22:55.912Z,99.90
2022-11-05T03:25:25.571Z,99.90
2022-11-05T03:28:00.693Z,99.90
2022-11-05T03:30:27.578Z,99.90
2022-11-05T03:32:59.276Z,99.90
2022-11-05T03:35:37.598Z,99.90
2022-11-05T03:38:12.126Z,99.90
2022-11-05T03:40:41.258Z,99.90
2022-11-05T03:43:09.224Z,99.90
2022-11-05T03:45:45.796Z,99.90
2022-11-05T03:48:16.237Z,99.90
2022-11-05T03:50:51.482Z,99.90
2022-11-05T03:53:43.800Z,99.90
2022-11-05T03:56:18.343Z,99.90
2022-11-05T03:58:46.750Z,99.90
2022-11-05T04:01:14.424Z,99.90
2022-11-05T04:03:41.246Z,99.90
2022-11-05T04:06:28.560Z,99.90
2022-11-05T04:09:14.327Z,99.90
2022-11-05T04:11:59.615Z,99.90
2022-11-05T04:14:26.562Z,99.90
2022-11-05T04:17:11.683Z,99.90
2022-11-05T04:20:04.178Z,99.90
2022-11-05T04:22:51.634Z,99.90
2022-11-05T04:25:19.568Z,99.90
2022-11-05T04:27:47.151Z,99.90
2022-11-05T04:30:18.428Z,99.90
2022-11-05T04:33:02.053Z,99.90
2022-11-05T04:35:48.764Z,99.90
2022-11-05T04:38:18.287Z,99.90
2022-11-05T04:40:46.358Z,99.90
2022-11-05T04:43:18.712Z,99.90
2022-11-05T04:45:46.205Z,99.90
2022-11-05T04:48:13.095Z,99.90
2022-11-05T04:50:39.880Z,99.90
2022-11-05T04:53:06.901Z,99.90
2022-11-05T04:55:33.789Z,99.90
2022-11-05T04:58:00.544Z,99.90
2022-11-05T05:00:27.514Z,99.90
2022-11-05T05:02:54.317Z,99.90
2022-11-05T05:05:22.946Z,99.90
2022-11-05T05:07:49.778Z,99.90
2022-11-05T05:10:16.727Z,99.90
2022-11-05T05:12:43.478Z,99.90
2022-11-05T05:15:10.395Z,99.90
2022-11-05T05:17:37.266Z,99.90
2022-11-05T05:20:22.563Z,99.90
2022-11-05T05:22:56.026Z,99.90
2022-11-05T05:25:23.346Z,99.90
2022-11-05T05:27:50.160Z,99.90
2022-11-05T05:30:17.240Z,99.90
2022-11-05T05:32:44.146Z,99.90
2022-11-05T05:35:10.953Z,99.90
2022-11-05T05:37:37.770Z,99.90
2022-11-05T05:40:04.868Z,99.90
2022-11-05T05:42:31.631Z,99.90
2022-11-05T05:44:58.536Z,99.90
2022-11-05T05:47:25.310Z,99.90
2022-11-05T05:49:52.480Z,99.90
2022-11-05T05:52:19.374Z,99.90
2022-11-05T05:54:46.121Z,99.90
2022-11-05T05:57:12.891Z,99.90
2022-11-05T05:59:39.665Z,99.90
2022-11-05T06:02:06.635Z,99.90
2022-11-05T06:04:33.593Z,99.90
2022-11-05T06:07:00.362Z,99.90
2022-11-05T06:09:27.130Z,99.90
2022-11-05T06:11:54.093Z,99.90
2022-11-05T06:14:21.320Z,99.90
2022-11-05T06:16:48.189Z,99.90
2022-11-05T06:19:14.974Z,99.90
2022-11-05T06:21:42.240Z,99.90
2022-11-05T06:24:09.306Z,99.90
2022-11-05T06:26:42.412Z,99.90
2022-11-05T06:29:10.654Z,99.90
2022-11-05T06:31:37.556Z,99.90
2022-11-05T06:34:04.354Z,99.90
2022-11-05T06:36:31.227Z,99.90
2022-11-05T06:38:58.042Z,99.90
2022-11-05T06:41:24.886Z,99.90
2022-11-05T06:43:51.682Z,99.90
2022-11-05T06:46:18.577Z,99.90
2022-11-05T06:48:45.440Z,99.90
2022-11-05T06:51:12.426Z,99.90
2022-11-05T06:53:39.177Z,99.90
2022-11-05T06:56:07.530Z,99.90
2022-11-05T06:58:34.739Z,99.90
2022-11-05T07:01:07.927Z,99.90
2022-11-05T07:03:35.823Z,99.90
2022-11-05T07:06:04.540Z,99.90
2022-11-05T07:08:32.798Z,99.90
2022-11-05T07:11:00.409Z,99.90
2022-11-05T07:13:27.641Z,99.90
2022-11-05T07:15:54.802Z,99.90
2022-11-05T07:18:22.035Z,99.90
2022-11-05T07:20:49.392Z,99.90
2022-11-05T07:23:16.800Z,99.90
2022-11-05T07:25:44.055Z,99.90
2022-11-05T07:28:11.097Z,99.90
2022-11-05T07:30:38.149Z,99.90
2022-11-05T07:33:05.429Z,99.90
2022-11-05T07:35:32.277Z,99.90
2022-11-05T07:37:59.189Z,99.90
2022-11-05T07:40:27.786Z,99.90
2022-11-05T07:42:59.200Z,99.90
2022-11-05T07:45:28.115Z,99.90
2022-11-05T07:47:57.394Z,99.90
2022-11-05T07:50:26.984Z,99.90
2022-11-05T07:52:53.972Z,99.90
2022-11-05T07:55:21.041Z,99.90
2022-11-05T07:57:50.654Z,99.90
2022-11-05T08:00:22.936Z,99.90
2022-11-05T08:03:18.376Z,99.90
2022-11-05T08:05:47.621Z,99.90
2022-11-05T08:08:17.602Z,99.90
2022-11-05T08:10:44.649Z,99.90
2022-11-05T08:13:13.081Z,99.90
2022-11-05T08:15:40.984Z,99.90
2022-11-05T08:18:11.733Z,99.90
2022-11-05T08:20:39.349Z,99.90
2022-11-05T08:23:06.192Z,99.90
2022-11-05T08:25:33.363Z,99.90
2022-11-05T08:28:02.147Z,99.90
2022-11-05T08:30:29.978Z,99.90
2022-11-05T08:32:59.055Z,99.90
2022-11-05T08:35:27.203Z,99.90
2022-11-05T08:38:02.972Z,99.90
2022-11-05T08:40:36.174Z,99.90
2022-11-05T08:43:04.815Z,99.90
2022-11-05T08:45:32.148Z,99.90
2022-11-05T08:48:00.088Z,99.90
2022-11-05T08:50:27.610Z,99.90
2022-11-05T08:52:54.633Z,99.90
2022-11-05T08:55:27.813Z,99.90
2022-11-05T08:57:58.880Z,99.90
2022-11-05T09:00:26.644Z,99.90
2022-11-05T09:02:53.482Z,99.90
2022-11-05T09:05:20.292Z,99.90
2022-11-05T09:07:47.407Z,99.90
2022-11-05T09:10:14.373Z,99.90
2022-11-05T09:12:41.359Z,99.90
2022-11-05T09:15:09.253Z,99.90
2022-11-05T09:17:36.134Z,99.90
2022-11-05T09:20:03.694Z,99.90
2022-11-05T09:22:30.577Z,99.90
2022-11-05T09:24:57.363Z,99.90
2022-11-05T09:27:24.143Z,99.90
2022-11-05T09:29:50.985Z,99.90
2022-11-05T09:32:19.327Z,99.90
2022-11-05T09:34:48.489Z,99.90
2022-11-05T09:37:15.457Z,99.90
2022-11-05T09:39:42.451Z,99.90
2022-11-05T09:42:13.761Z,99.90
2022-11-05T09:44:48.812Z,99.90
2022-11-05T09:47:24.692Z,99.90
2022-11-05T09:49:54.690Z,99.90
2022-11-05T09:52:25.503Z,99.90
2022-11-05T09:54:54.399Z,99.90
2022-11-05T09:57:34.970Z,99.90
2022-11-05T10:00:05.582Z,99.90
2022-11-05T10:02:50.006Z,99.90
2022-11-05T10:05:18.808Z,99.90
2022-11-05T10:07:55.387Z,99.90
2022-11-05T10:10:55.496Z,99.90
2022-11-05T10:13:42.205Z,99.90
2022-11-05T10:16:20.284Z,99.90
2022-11-05T10:18:54.510Z,99.90
2022-11-05T10:21:37.573Z,99.90
2022-11-05T10:24:20.645Z,99.90
2022-11-05T10:26:53.117Z,99.90
2022-11-05T10:29:32.498Z,99.90
2022-11-05T10:32:03.229Z,99.90
2022-11-05T10:34:33.675Z,99.90
2022-11-05T10:37:00.936Z,99.90
2022-11-05T10:39:35.228Z,99.90
2022-11-05T10:42:28.834Z,99.90
2022-11-05T10:45:07.524Z,99.90
2022-11-05T10:47:43.480Z,99.90
2022-11-05T10:50:14.640Z,99.90
2022-11-05T10:53:20.200Z,99.90
2022-11-05T10:55:51.786Z,99.90
2022-11-05T10:58:18.477Z,99.90
2022-11-05T11:01:02.549Z,99.90
2022-11-05T11:03:37.468Z,99.90
2022-11-05T11:06:13.403Z,99.90
2022-11-05T11:08:43.818Z,99.90
2022-11-05T11:11:13.167Z,99.90
2022-11-05T11:14:12.463Z,99.90
2022-11-05T11:16:44.904Z,99.90
2022-11-05T11:19:21.110Z,99.90
2022-11-05T11:22:03.488Z,99.90
2022-11-05T11:24:38.892Z,99.90
2022-11-05T11:27:10.399Z,99.90
2022-11-05T11:29:42.915Z,99.90
2022-11-05T11:32:16.728Z,99.90
2022-11-05T11:34:45.864Z,99.90
2022-11-05T11:37:37.368Z,99.90
2022-11-05T11:40:11.985Z,99.90
2022-11-05T11:42:40.864Z,99.90
2022-11-05T11:45:18.621Z,99.90
2022-11-05T11:47:48.845Z,99.90
2022-11-05T11:50:36.779Z,99.90
2022-11-05T11:53:22.006Z,99.90
2022-11-05T11:56:01.181Z,99.90
2022-11-05T11:58:52.761Z,99.90
2022-11-05T12:01:28.512Z,99.90
2022-11-05T12:04:16.561Z,99.90
2022-11-05T12:07:10.538Z,99.90
2022-11-05T12:09:56.677Z,99.90
2022-11-05T12:12:41.492Z,99.90
2022-11-05T12:15:42.059Z,99.90
2022-11-05T12:18:26.674Z,99.90
2022-11-05T12:21:04.992Z,99.90
2022-11-05T12:23:40.685Z,99.90
2022-11-05T12:26:34.245Z,99.90
2022-11-05T12:29:19.614Z,99.90
2022-11-05T12:32:26.612Z,99.90
2022-11-05T12:35:24.715Z,99.90
2022-11-05T12:38:19.511Z,99.90
2022-11-05T12:41:10.723Z,99.90
2022-11-05T12:43:51.528Z,99.90
2022-11-05T12:46:27.570Z,99.90
2022-11-05T12:49:01.335Z,99.90
2022-11-05T12:51:46.627Z,99.90
2022-11-05T12:54:13.396Z,99.90
2022-11-05T12:56:52.894Z,99.90
2022-11-05T12:59:32.896Z,99.90
2022-11-05T13:02:30.026Z,99.90
2022-11-05T13:05:01.870Z,99.90
2022-11-05T13:07:32.648Z,99.90
2022-11-05T13:10:18.301Z,99.90
2022-11-05T13:12:52.960Z,99.90
2022-11-05T13:15:33.804Z,99.90
2022-11-05T13:18:05.903Z,99.90
2022-11-05T13:20:42.207Z,99.90
2022-11-05T13:23:18.570Z,99.90
2022-11-05T13:25:52.628Z,99.90
2022-11-05T13:28:35.480Z,99.90
2022-11-05T13:31:05.786Z,99.90
2022-11-05T13:33:37.211Z,99.90
2022-11-05T13:36:30.766Z,99.90
2022-11-05T13:39:15.618Z,99.90
2022-11-05T13:41:54.471Z,99.90
2022-11-05T13:44:42.538Z,99.90
2022-11-05T13:47:31.101Z,99.90
2022-11-05T13:50:22.381Z,99.90
2022-11-05T13:52:58.756Z,99.90
2022-11-05T13:55:44.164Z,99.90
2022-11-05T13:58:10.905Z,99.90
2022-11-05T14:01:02.103Z,99.90
2022-11-05T14:03:29.604Z,99.90
2022-11-05T14:06:13.273Z,99.90
2022-11-05T14:08:46.445Z,99.90
2022-11-05T14:11:40.385Z,99.90
2022-11-05T14:14:14.617Z,99.90
2022-11-05T14:16:53.740Z,99.90
2022-11-05T14:19:20.511Z,99.90
2022-11-05T14:21:56.751Z,99.90
2022-11-05T14:24:23.554Z,99.90
2022-11-05T14:27:02.575Z,99.90
2022-11-05T14:29:42.724Z,99.90
2022-11-05T14:32:19.048Z,99.90
2022-11-05T14:34:54.898Z,99.90
2022-11-05T14:37:31.058Z,99.90
2022-11-05T14:40:36.504Z,99.90
2022-11-05T14:43:08.495Z,99.90
2022-11-05T14:45:41.778Z,99.90
2022-11-05T14:48:35.581Z,99.90
2022-11-05T14:51:02.757Z,99.90
2022-11-05T14:53:40.905Z,99.90
2022-11-05T14:56:13.268Z,99.90
2022-11-05T14:58:41.556Z,99.90
2022-11-05T15:01:15.944Z,99.90
2022-11-05T15:03:46.468Z,99.90
2022-11-05T15:06:31.364Z,99.90
2022-11-05T15:09:08.399Z,99.90
2022-11-05T15:11:41.695Z,99.90
2022-11-05T15:14:58.006Z,99.90
2022-11-05T15:17:38.839Z,99.90
2022-11-05T15:20:14.342Z,99.90
2022-11-05T15:22:44.467Z,99.90
2022-11-05T15:25:21.215Z,99.90
2022-11-05T15:27:57.985Z,99.90
2022-11-05T15:30:24.839Z,99.90
2022-11-05T15:32:52.389Z,99.90
2022-11-05T15:35:27.057Z,99.90
2022-11-05T15:38:01.849Z,99.90
2022-11-05T15:40:32.943Z,99.90
2022-11-05T15:43:21.618Z,99.90
2022-11-05T15:46:14.043Z,99.90
2022-11-05T15:48:44.704Z,99.90
2022-11-05T15:51:12.980Z,99.90
2022-11-05T15:54:08.803Z,99.90
2022-11-05T15:56:49.661Z,99.90
2022-11-05T15:59:19.478Z,99.90
2022-11-05T16:01:56.879Z,99.90
2022-11-05T16:04:27.799Z,99.90
2022-11-05T16:06:58.211Z,99.90
2022-11-05T16:09:33.654Z,99.90
2022-11-05T16:12:15.387Z,99.90
2022-11-05T16:14:42.413Z,99.90
2022-11-05T16:17:26.090Z,99.90
2022-11-05T16:19:53.730Z,99.90
2022-11-05T16:22:20.855Z,99.90
2022-11-05T16:24:49.662Z,99.90
2022-11-05T16:27:22.140Z,99.90
2022-11-05T16:29:50.785Z,99.90
2022-11-05T16:32:35.554Z,99.90
2022-11-05T16:35:05.177Z,99.90
2022-11-05T16:37:39.872Z,99.90
2022-11-05T16:40:14.551Z,99.90
2022-11-05T16:42:42.278Z,99.90
2022-11-05T16:45:12.729Z,99.90
2022-11-05T16:47:39.764Z,99.90
2022-11-05T16:50:25.683Z,99.90
2022-11-05T16:52:53.111Z,99.90
2022-11-05T16:55:20.032Z,99.90
2022-11-05T16:57:51.917Z,99.90
2022-11-05T17:00:21.191Z,99.90
2022-11-05T17:02:48.596Z,99.90
2022-11-05T17:05:23.050Z,99.90
2022-11-05T17:07:50.645Z,99.90
2022-11-05T17:10:18.325Z,99.90
2022-11-05T17:12:45.559Z,99.90
2022-11-05T17:15:18.691Z,99.90
2022-11-05T17:17:45.646Z,99.90
2022-11-05T17:20:41.698Z,99.90
2022-11-05T17:23:14.417Z,99.90
2022-11-05T17:25:43.414Z,99.90
2022-11-05T17:28:11.488Z,99.90
2022-11-05T17:30:41.415Z,99.90
2022-11-05T17:33:10.883Z,99.90
2022-11-05T17:35:39.667Z,99.90
2022-11-05T17:38:06.504Z,99.90
2022-11-05T17:40:34.876Z,99.90
2022-11-05T17:43:05.594Z,99.90
2022-11-05T17:45:32.863Z,99.90
2022-11-05T17:48:00.354Z,99.90
2022-11-05T17:50:27.229Z,99.90
2022-11-05T17:52:54.066Z,99.90
2022-11-05T17:55:20.921Z,99.90
2022-11-05T17:57:49.700Z,99.90
2022-11-05T18:00:21.935Z,99.90
2022-11-05T18:02:49.868Z,99.90
2022-11-05T18:05:18.367Z,99.90
2022-11-05T18:07:45.682Z,99.90
2022-11-05T18:10:13.386Z,99.90
2022-11-05T18:12:40.616Z,99.90
2022-11-05T18:15:08.944Z,99.90
2022-11-05T18:17:36.132Z,99.90
2022-11-05T18:20:04.818Z,99.90
2022-11-05T18:22:31.713Z,99.90
2022-11-05T18:24:58.638Z,99.90
2022-11-05T18:27:27.660Z,99.90
2022-11-05T18:29:55.038Z,99.90
2022-11-05T18:32:22.090Z,99.90
2022-11-05T18:34:48.943Z,99.90
2022-11-05T18:37:16.336Z,99.90
2022-11-05T18:39:43.608Z,99.90
2022-11-05T18:42:11.062Z,99.90
2022-11-05T18:44:39.676Z,99.90
2022-11-05T18:47:06.965Z,99.90
2022-11-05T18:49:36.161Z,99.90
2022-11-05T18:52:04.377Z,99.90
2022-11-05T18:54:31.266Z,99.90
2022-11-05T18:56:58.461Z,99.90
2022-11-05T18:59:40.675Z,99.90
2022-11-05T19:02:08.480Z,99.90
2022-11-05T19:04:36.816Z,99.90
2022-11-05T19:07:05.678Z,99.90
2022-11-05T19:09:36.547Z,99.90
2022-11-05T19:12:04.464Z,99.90
2022-11-05T19:14:31.674Z,99.90
2022-11-05T19:16:59.501Z,99.90
2022-11-05T19:19:27.155Z,99.90
2022-11-05T19:21:54.331Z,99.90
2022-11-05T19:24:21.230Z,99.90
2022-11-05T19:26:48.638Z,99.90
2022-11-05T19:29:15.827Z,99.90
2022-11-05T19:31:43.279Z,99.90
2022-11-05T19:34:10.299Z,99.90
2022-11-05T19:36:37.162Z,99.90
2022-11-05T19:39:11.144Z,99.90
2022-11-05T19:41:38.027Z,99.90
2022-11-05T19:44:04.991Z,99.90
2022-11-05T19:46:32.966Z,99.90
2022-11-05T19:49:01.291Z,99.90
2022-11-05T19:51:31.001Z,99.90
2022-11-05T19:53:59.920Z,99.90
2022-11-05T19:56:31.888Z,99.90
2022-11-05T19:59:00.452Z,99.90
2022-11-05T20:01:29.027Z,99.90
2022-11-05T20:03:58.215Z,99.90
2022-11-05T20:06:32.047Z,99.90
2022-11-05T20:11:49.379Z,99.90
2022-11-05T20:14:16.707Z,99.90
2022-11-05T20:16:43.560Z,99.90
2022-11-05T20:19:13.216Z,99.90
2022-11-05T20:21:40.206Z,99.90
2022-11-05T20:24:08.212Z,99.90
2022-11-05T20:26:35.263Z,99.90
2022-11-05T20:29:02.251Z,99.90
2022-11-05T20:31:29.155Z,99.90
2022-11-05T20:33:56.011Z,99.90
2022-11-05T20:36:25.593Z,99.90
2022-11-05T20:39:02.252Z,99.90
2022-11-05T20:41:30.672Z,99.90
2022-11-05T20:43:57.913Z,99.90
2022-11-05T20:46:25.484Z,99.90
2022-11-05T20:48:53.542Z,99.90
2022-11-05T20:51:22.607Z,99.90
2022-11-05T20:53:53.931Z,99.90
2022-11-05T20:56:23.426Z,99.90
2022-11-05T20:58:50.971Z,99.90
2022-11-05T21:01:18.763Z,99.90
2022-11-05T21:03:47.055Z,99.90
2022-11-05T21:06:14.574Z,99.90
2022-11-05T21:08:42.490Z,99.90
2022-11-05T21:11:10.664Z,99.90
2022-11-05T21:13:38.005Z,99.90
2022-11-05T21:16:07.157Z,99.90
2022-11-05T21:18:35.977Z,99.90
2022-11-05T21:21:08.033Z,99.90
2022-11-05T21:23:35.199Z,99.90
2022-11-05T21:26:10.798Z,99.90
2022-11-05T21:28:39.425Z,99.90
2022-11-05T21:31:07.297Z,99.90
2022-11-05T21:33:34.498Z,99.90
2022-11-05T21:36:10.396Z,99.90
2022-11-05T21:38:37.808Z,99.90
2022-11-05T21:41:05.861Z,99.90
2022-11-05T21:43:33.233Z,99.90
2022-11-05T21:46:04.502Z,99.90
2022-11-05T21:48:32.282Z,99.90
2022-11-05T21:51:17.614Z,99.90
2022-11-05T21:54:03.034Z,99.90
2022-11-05T21:56:48.398Z,99.90
2022-11-05T21:59:37.340Z,99.90
2022-11-05T22:02:05.215Z,99.90
2022-11-05T22:04:35.891Z,99.90
2022-11-05T22:07:04.128Z,99.90
2022-11-05T22:09:31.105Z,99.90
2022-11-05T22:11:59.104Z,99.90
2022-11-05T22:14:26.950Z,99.90
2022-11-05T22:16:53.992Z,99.90
2022-11-05T22:19:21.009Z,99.90
2022-11-05T22:21:48.252Z,99.90
2022-11-05T22:24:15.236Z,99.90
2022-11-05T22:26:43.000Z,99.90
2022-11-05T22:29:10.452Z,99.90
2022-11-05T22:31:37.464Z,99.90
2022-11-05T22:34:05.845Z,99.90
2022-11-05T22:36:34.158Z,99.90
2022-11-05T22:39:01.708Z,99.90
2022-11-05T22:41:28.969Z,99.90
2022-11-05T22:43:55.927Z,99.90
2022-11-05T22:46:25.017Z,99.90
2022-11-05T22:48:52.433Z,99.90
2022-11-05T22:51:21.888Z,99.90
2022-11-05T22:53:49.624Z,99.90
2022-11-05T22:56:20.226Z,99.90
2022-11-05T22:58:47.899Z,99.90
2022-11-05T23:01:15.883Z,99.90
2022-11-05T23:03:45.178Z,99.90
2022-11-05T23:06:42.269Z,99.90
2022-11-05T23:09:39.731Z,99.90
2022-11-05T23:12:18.083Z,99.90
2022-11-05T23:14:44.874Z,99.90
2022-11-05T23:17:30.365Z,99.90
2022-11-05T23:20:15.318Z,99.90
2022-11-05T23:23:00.561Z,99.90
2022-11-05T23:25:27.376Z,99.90
2022-11-05T23:27:55.112Z,99.90
2022-11-05T23:30:25.796Z,99.90
2022-11-05T23:32:53.678Z,99.90
2022-11-05T23:35:43.161Z,99.90
2022-11-05T23:38:29.012Z,99.90
2022-11-05T23:41:21.906Z,99.90
2022-11-05T23:44:07.500Z,99.90
2022-11-05T23:46:53.256Z,99.90
2022-11-05T23:49:20.395Z,99.90
2022-11-05T23:51:47.203Z,99.90
2022-11-05T23:54:14.080Z,99.90
2022-11-05T23:56:41.003Z,99.90
2022-11-05T23:59:08.098Z,99.90
